sensor_id;sensor_type;location;lat;lon;timestamp;temperature;humidity
21312;DHT22;18076;52.154;10.570;2023-09-12T00:02:11;20.90;99.90
21312;DHT22;18076;52.154;10.570;2023-09-12T00:04:36;20.80;99.90
21312;DHT22;18076;52.154;10.570;2023-09-12T00:07:02;20.70;99.90
21312;DHT22;18076;52.154;10.570;2023-09-12T00:09:27;20.70;99.90
21312;DHT22;18076;52.154;10.570;2023-09-12T00:11:53;20.60;99.90
21312;DHT22;18076;52.154;10.570;2023-09-12T00:14:20;20.60;99.90
21312;DHT22;18076;52.154;10.570;2023-09-12T00:16:45;20.60;99.90
21312;DHT22;18076;52.154;10.570;2023-09-12T00:19:11;20.50;99.90
21312;DHT22;18076;52.154;10.570;2023-09-12T00:21:37;20.40;99.90
21312;DHT22;18076;52.154;10.570;2023-09-12T00:24:03;20.40;99.90
21312;DHT22;18076;52.154;10.570;2023-09-12T00:26:28;20.30;99.90
21312;DHT22;18076;52.154;10.570;2023-09-12T00:28:56;20.40;99.90
21312;DHT22;18076;52.154;10.570;2023-09-12T00:31:21;20.40;99.90
21312;DHT22;18076;52.154;10.570;2023-09-12T00:33:47;20.40;99.90
21312;DHT22;18076;52.154;10.570;2023-09-12T00:36:12;20.40;99.90
21312;DHT22;18076;52.154;10.570;2023-09-12T00:38:38;20.40;99.90
21312;DHT22;18076;52.154;10.570;2023-09-12T00:41:03;20.30;99.90
21312;DHT22;18076;52.154;10.570;2023-09-12T00:43:29;20.30;99.90
21312;DHT22;18076;52.154;10.570;2023-09-12T00:45:54;20.30;99.90
21312;DHT22;18076;52.154;10.570;2023-09-12T00:48:20;20.30;99.90
21312;DHT22;18076;52.154;10.570;2023-09-12T00:50:47;20.30;99.90
21312;DHT22;18076;52.154;10.570;2023-09-12T00:53:14;20.10;99.90
21312;DHT22;18076;52.154;10.570;2023-09-12T00:55:42;20.10;99.90
21312;DHT22;18076;52.154;10.570;2023-09-12T00:58:09;20.10;99.90
21312;DHT22;18076;52.154;10.570;2023-09-12T01:00:35;20.10;99.90
21312;DHT22;18076;52.154;10.570;2023-09-12T01:03:00;20.10;99.90
21312;DHT22;18076;52.154;10.570;2023-09-12T01:05:26;20.10;99.90
21312;DHT22;18076;52.154;10.570;2023-09-12T01:07:52;20.10;99.90
21312;DHT22;18076;52.154;10.570;2023-09-12T01:10:18;20.00;99.90
21312;DHT22;18076;52.154;10.570;2023-09-12T01:12:44;19.90;99.90
21312;DHT22;18076;52.154;10.570;2023-09-12T01:15:09;19.90;99.90
21312;DHT22;18076;52.154;10.570;2023-09-12T01:17:42;19.80;99.90
21312;DHT22;18076;52.154;10.570;2023-09-12T01:20:08;19.60;99.90
21312;DHT22;18076;52.154;10.570;2023-09-12T01:27:48;19.40;99.90
21312;DHT22;18076;52.154;10.570;2023-09-12T01:30:22;19.40;99.90
21312;DHT22;18076;52.154;10.570;2023-09-12T01:32:49;19.40;99.90
21312;DHT22;18076;52.154;10.570;2023-09-12T01:35:15;19.30;99.90
21312;DHT22;18076;52.154;10.570;2023-09-12T01:37:40;19.30;99.90
21312;DHT22;18076;52.154;10.570;2023-09-12T01:40:06;19.20;99.90
21312;DHT22;18076;52.154;10.570;2023-09-12T01:42:40;19.20;99.90
21312;DHT22;18076;52.154;10.570;2023-09-12T01:45:09;19.20;99.90
21312;DHT22;18076;52.154;10.570;2023-09-12T01:47:35;19.20;99.90
21312;DHT22;18076;52.154;10.570;2023-09-12T01:50:01;19.20;99.90
21312;DHT22;18076;52.154;10.570;2023-09-12T01:52:27;19.20;99.90
21312;DHT22;18076;52.154;10.570;2023-09-12T01:54:53;19.30;99.90
21312;DHT22;18076;52.154;10.570;2023-09-12T01:57:19;19.30;99.90
21312;DHT22;18076;52.154;10.570;2023-09-12T01:59:48;19.30;99.90
21312;DHT22;18076;52.154;10.570;2023-09-12T02:02:17;19.40;99.90
21312;DHT22;18076;52.154;10.570;2023-09-12T02:04:48;19.40;99.90
21312;DHT22;18076;52.154;10.570;2023-09-12T02:07:16;19.40;99.90
21312;DHT22;18076;52.154;10.570;2023-09-12T02:09:41;19.30;99.90
21312;DHT22;18076;52.154;10.570;2023-09-12T02:12:07;19.30;99.90
21312;DHT22;18076;52.154;10.570;2023-09-12T02:14:34;19.40;99.90
21312;DHT22;18076;52.154;10.570;2023-09-12T02:16:59;19.40;99.90
21312;DHT22;18076;52.154;10.570;2023-09-12T02:19:25;19.40;99.90
21312;DHT22;18076;52.154;10.570;2023-09-12T02:21:50;19.40;99.90
21312;DHT22;18076;52.154;10.570;2023-09-12T02:24:16;19.50;99.90
21312;DHT22;18076;52.154;10.570;2023-09-12T02:26:43;19.50;99.90
21312;DHT22;18076;52.154;10.570;2023-09-12T02:29:08;19.50;99.90
21312;DHT22;18076;52.154;10.570;2023-09-12T02:31:35;19.50;99.90
21312;DHT22;18076;52.154;10.570;2023-09-12T02:34:00;19.50;99.90
21312;DHT22;18076;52.154;10.570;2023-09-12T02:36:26;19.50;99.90
21312;DHT22;18076;52.154;10.570;2023-09-12T02:38:51;19.50;99.90
21312;DHT22;18076;52.154;10.570;2023-09-12T02:41:17;19.50;99.90
21312;DHT22;18076;52.154;10.570;2023-09-12T02:43:42;19.50;99.90
21312;DHT22;18076;52.154;10.570;2023-09-12T02:46:08;19.50;99.90
21312;DHT22;18076;52.154;10.570;2023-09-12T02:48:33;19.40;99.90
21312;DHT22;18076;52.154;10.570;2023-09-12T02:50:59;19.50;99.90
21312;DHT22;18076;52.154;10.570;2023-09-12T02:53:24;19.40;99.90
21312;DHT22;18076;52.154;10.570;2023-09-12T02:55:51;19.40;99.90
21312;DHT22;18076;52.154;10.570;2023-09-12T02:58:16;19.40;99.90
21312;DHT22;18076;52.154;10.570;2023-09-12T03:00:42;19.30;99.90
21312;DHT22;18076;52.154;10.570;2023-09-12T03:03:07;19.30;99.90
21312;DHT22;18076;52.154;10.570;2023-09-12T03:05:35;19.30;99.90
21312;DHT22;18076;52.154;10.570;2023-09-12T03:08:00;19.30;99.90
21312;DHT22;18076;52.154;10.570;2023-09-12T03:10:26;19.30;99.90
21312;DHT22;18076;52.154;10.570;2023-09-12T03:12:51;19.20;99.90
21312;DHT22;18076;52.154;10.570;2023-09-12T03:15:17;19.10;99.90
21312;DHT22;18076;52.154;10.570;2023-09-12T03:17:42;19.10;99.90
21312;DHT22;18076;52.154;10.570;2023-09-12T03:20:08;19.00;99.90
21312;DHT22;18076;52.154;10.570;2023-09-12T03:22:34;19.00;99.90
21312;DHT22;18076;52.154;10.570;2023-09-12T03:25:06;19.00;99.90
21312;DHT22;18076;52.154;10.570;2023-09-12T03:27:31;18.90;99.90
21312;DHT22;18076;52.154;10.570;2023-09-12T03:29:57;19.00;99.90
21312;DHT22;18076;52.154;10.570;2023-09-12T03:32:23;18.90;99.90
21312;DHT22;18076;52.154;10.570;2023-09-12T03:34:48;18.90;99.90
21312;DHT22;18076;52.154;10.570;2023-09-12T03:37:14;19.00;99.90
21312;DHT22;18076;52.154;10.570;2023-09-12T03:39:40;19.00;99.90
21312;DHT22;18076;52.154;10.570;2023-09-12T03:42:06;19.00;99.90
21312;DHT22;18076;52.154;10.570;2023-09-12T03:44:31;19.00;99.90
21312;DHT22;18076;52.154;10.570;2023-09-12T03:46:59;19.00;99.90
21312;DHT22;18076;52.154;10.570;2023-09-12T03:49:25;19.00;99.90
21312;DHT22;18076;52.154;10.570;2023-09-12T03:51:50;19.00;99.90
21312;DHT22;18076;52.154;10.570;2023-09-12T03:54:16;19.00;99.90
21312;DHT22;18076;52.154;10.570;2023-09-12T03:56:42;19.00;99.90
21312;DHT22;18076;52.154;10.570;2023-09-12T03:59:07;19.00;99.90
21312;DHT22;18076;52.154;10.570;2023-09-12T04:01:33;18.90;99.90
21312;DHT22;18076;52.154;10.570;2023-09-12T04:03:58;18.90;99.90
21312;DHT22;18076;52.154;10.570;2023-09-12T04:06:24;18.90;99.90
21312;DHT22;18076;52.154;10.570;2023-09-12T04:08:49;18.90;99.90
21312;DHT22;18076;52.154;10.570;2023-09-12T04:11:15;18.90;99.90
21312;DHT22;18076;52.154;10.570;2023-09-12T04:13:40;18.90;99.90
21312;DHT22;18076;52.154;10.570;2023-09-12T04:16:06;18.90;99.90
21312;DHT22;18076;52.154;10.570;2023-09-12T04:18:31;18.80;99.90
21312;DHT22;18076;52.154;10.570;2023-09-12T04:20:57;18.80;99.90
21312;DHT22;18076;52.154;10.570;2023-09-12T04:23:24;18.80;99.90
21312;DHT22;18076;52.154;10.570;2023-09-12T04:25:50;18.90;99.90
21312;DHT22;18076;52.154;10.570;2023-09-12T04:28:15;18.90;99.90
21312;DHT22;18076;52.154;10.570;2023-09-12T04:30:44;18.90;99.90
21312;DHT22;18076;52.154;10.570;2023-09-12T04:33:10;18.90;99.90
21312;DHT22;18076;52.154;10.570;2023-09-12T04:35:35;18.80;99.90
21312;DHT22;18076;52.154;10.570;2023-09-12T04:38:01;18.70;99.90
21312;DHT22;18076;52.154;10.570;2023-09-12T04:40:26;18.70;99.90
21312;DHT22;18076;52.154;10.570;2023-09-12T04:42:53;18.70;99.90
21312;DHT22;18076;52.154;10.570;2023-09-12T04:45:18;18.70;99.90
21312;DHT22;18076;52.154;10.570;2023-09-12T04:47:44;18.70;99.90
21312;DHT22;18076;52.154;10.570;2023-09-12T04:50:09;18.70;99.90
21312;DHT22;18076;52.154;10.570;2023-09-12T04:52:37;18.70;99.90
21312;DHT22;18076;52.154;10.570;2023-09-12T04:55:02;18.70;99.90
21312;DHT22;18076;52.154;10.570;2023-09-12T04:57:29;18.70;99.90
21312;DHT22;18076;52.154;10.570;2023-09-12T04:59:56;18.70;99.90
21312;DHT22;18076;52.154;10.570;2023-09-12T05:02:21;18.70;99.90
21312;DHT22;18076;52.154;10.570;2023-09-12T05:04:47;18.60;99.90
21312;DHT22;18076;52.154;10.570;2023-09-12T05:07:13;18.60;99.90
21312;DHT22;18076;52.154;10.570;2023-09-12T05:09:39;18.70;99.90
21312;DHT22;18076;52.154;10.570;2023-09-12T05:12:04;18.70;99.90
21312;DHT22;18076;52.154;10.570;2023-09-12T05:14:30;18.70;99.90
21312;DHT22;18076;52.154;10.570;2023-09-12T05:16:55;18.70;99.90
21312;DHT22;18076;52.154;10.570;2023-09-12T05:19:21;18.80;99.90
21312;DHT22;18076;52.154;10.570;2023-09-12T05:21:48;18.80;99.90
21312;DHT22;18076;52.154;10.570;2023-09-12T05:24:13;18.90;99.90
21312;DHT22;18076;52.154;10.570;2023-09-12T05:26:39;18.90;99.90
21312;DHT22;18076;52.154;10.570;2023-09-12T05:29:04;19.00;99.90
21312;DHT22;18076;52.154;10.570;2023-09-12T05:31:31;19.10;99.90
21312;DHT22;18076;52.154;10.570;2023-09-12T05:33:57;19.20;99.90
21312;DHT22;18076;52.154;10.570;2023-09-12T05:36:22;19.40;99.90
21312;DHT22;18076;52.154;10.570;2023-09-12T05:38:48;19.40;99.90
21312;DHT22;18076;52.154;10.570;2023-09-12T05:41:13;19.40;99.90
21312;DHT22;18076;52.154;10.570;2023-09-12T05:43:39;19.50;99.90
21312;DHT22;18076;52.154;10.570;2023-09-12T05:46:04;19.60;99.90
21312;DHT22;18076;52.154;10.570;2023-09-12T05:48:30;19.70;99.90
21312;DHT22;18076;52.154;10.570;2023-09-12T05:50:55;19.90;99.90
21312;DHT22;18076;52.154;10.570;2023-09-12T05:53:21;20.10;99.90
21312;DHT22;18076;52.154;10.570;2023-09-12T05:55:46;20.30;99.90
21312;DHT22;18076;52.154;10.570;2023-09-12T05:58:12;20.40;99.90
21312;DHT22;18076;52.154;10.570;2023-09-12T06:00:37;20.60;99.90
21312;DHT22;18076;52.154;10.570;2023-09-12T06:03:03;21.10;99.90
21312;DHT22;18076;52.154;10.570;2023-09-12T06:05:28;21.60;99.90
21312;DHT22;18076;52.154;10.570;2023-09-12T06:07:54;22.10;99.90
21312;DHT22;18076;52.154;10.570;2023-09-12T06:10:20;22.30;99.90
21312;DHT22;18076;52.154;10.570;2023-09-12T06:12:45;22.40;99.90
21312;DHT22;18076;52.154;10.570;2023-09-12T06:15:11;22.70;99.90
21312;DHT22;18076;52.154;10.570;2023-09-12T06:17:36;22.90;99.90
21312;DHT22;18076;52.154;10.570;2023-09-12T06:20:02;23.10;99.90
21312;DHT22;18076;52.154;10.570;2023-09-12T06:22:31;23.10;99.90
21312;DHT22;18076;52.154;10.570;2023-09-12T06:24:57;23.10;99.90
21312;DHT22;18076;52.154;10.570;2023-09-12T06:27:22;22.90;99.90
21312;DHT22;18076;52.154;10.570;2023-09-12T06:29:48;22.70;99.90
21312;DHT22;18076;52.154;10.570;2023-09-12T06:32:14;22.40;99.90
21312;DHT22;18076;52.154;10.570;2023-09-12T06:34:40;22.30;99.90
21312;DHT22;18076;52.154;10.570;2023-09-12T06:37:05;22.30;99.90
21312;DHT22;18076;52.154;10.570;2023-09-12T06:39:31;22.20;99.90
21312;DHT22;18076;52.154;10.570;2023-09-12T06:41:56;22.30;99.90
21312;DHT22;18076;52.154;10.570;2023-09-12T06:44:22;22.30;99.90
21312;DHT22;18076;52.154;10.570;2023-09-12T06:46:47;22.30;99.90
21312;DHT22;18076;52.154;10.570;2023-09-12T06:49:13;22.30;99.90
21312;DHT22;18076;52.154;10.570;2023-09-12T06:51:39;22.30;99.90
21312;DHT22;18076;52.154;10.570;2023-09-12T06:54:04;22.10;99.90
21312;DHT22;18076;52.154;10.570;2023-09-12T06:56:30;22.00;99.90
21312;DHT22;18076;52.154;10.570;2023-09-12T06:58:55;21.70;99.90
21312;DHT22;18076;52.154;10.570;2023-09-12T07:01:21;21.60;99.90
21312;DHT22;18076;52.154;10.570;2023-09-12T07:03:46;21.30;99.90
21312;DHT22;18076;52.154;10.570;2023-09-12T07:06:12;21.20;99.90
21312;DHT22;18076;52.154;10.570;2023-09-12T07:08:38;21.00;99.90
21312;DHT22;18076;52.154;10.570;2023-09-12T07:11:04;20.90;99.90
21312;DHT22;18076;52.154;10.570;2023-09-12T07:13:31;20.80;99.90
21312;DHT22;18076;52.154;10.570;2023-09-12T07:15:57;20.70;99.90
21312;DHT22;18076;52.154;10.570;2023-09-12T07:18:23;20.60;99.90
21312;DHT22;18076;52.154;10.570;2023-09-12T07:21:09;20.50;99.90
21312;DHT22;18076;52.154;10.570;2023-09-12T07:23:36;20.50;99.90
21312;DHT22;18076;52.154;10.570;2023-09-12T07:26:02;20.50;99.90
21312;DHT22;18076;52.154;10.570;2023-09-12T07:28:28;20.50;99.90
21312;DHT22;18076;52.154;10.570;2023-09-12T07:30:54;20.50;99.90
21312;DHT22;18076;52.154;10.570;2023-09-12T07:33:20;20.50;99.90
21312;DHT22;18076;52.154;10.570;2023-09-12T07:35:46;20.50;99.90
21312;DHT22;18076;52.154;10.570;2023-09-12T07:38:12;20.50;99.90
21312;DHT22;18076;52.154;10.570;2023-09-12T07:40:38;20.50;99.90
21312;DHT22;18076;52.154;10.570;2023-09-12T07:43:04;20.60;99.90
21312;DHT22;18076;52.154;10.570;2023-09-12T07:45:29;20.60;99.90
21312;DHT22;18076;52.154;10.570;2023-09-12T07:47:56;20.70;99.90
21312;DHT22;18076;52.154;10.570;2023-09-12T07:50:22;20.80;99.90
21312;DHT22;18076;52.154;10.570;2023-09-12T07:52:47;21.10;99.90
21312;DHT22;18076;52.154;10.570;2023-09-12T07:55:13;21.50;99.90
21312;DHT22;18076;52.154;10.570;2023-09-12T07:57:38;21.80;99.90
21312;DHT22;18076;52.154;10.570;2023-09-12T08:00:04;22.30;99.90
21312;DHT22;18076;52.154;10.570;2023-09-12T08:02:35;22.90;99.90
21312;DHT22;18076;52.154;10.570;2023-09-12T08:05:01;23.60;99.90
21312;DHT22;18076;52.154;10.570;2023-09-12T08:07:27;24.10;99.90
21312;DHT22;18076;52.154;10.570;2023-09-12T08:09:53;24.60;99.90
21312;DHT22;18076;52.154;10.570;2023-09-12T08:12:19;24.70;99.90
21312;DHT22;18076;52.154;10.570;2023-09-12T08:14:45;24.70;99.90
21312;DHT22;18076;52.154;10.570;2023-09-12T08:17:11;24.80;99.90
21312;DHT22;18076;52.154;10.570;2023-09-12T08:19:37;25.00;99.90
21312;DHT22;18076;52.154;10.570;2023-09-12T08:22:03;25.00;99.90
21312;DHT22;18076;52.154;10.570;2023-09-12T08:24:29;24.70;99.90
21312;DHT22;18076;52.154;10.570;2023-09-12T08:26:54;24.50;99.90
21312;DHT22;18076;52.154;10.570;2023-09-12T08:29:20;24.40;99.90
21312;DHT22;18076;52.154;10.570;2023-09-12T08:31:46;24.30;99.90
21312;DHT22;18076;52.154;10.570;2023-09-12T08:34:12;24.30;99.90
21312;DHT22;18076;52.154;10.570;2023-09-12T08:36:38;24.40;99.90
21312;DHT22;18076;52.154;10.570;2023-09-12T08:39:03;24.30;99.90
21312;DHT22;18076;52.154;10.570;2023-09-12T08:41:30;24.20;99.90
21312;DHT22;18076;52.154;10.570;2023-09-12T08:43:56;24.10;99.90
21312;DHT22;18076;52.154;10.570;2023-09-12T08:46:21;24.00;99.90
21312;DHT22;18076;52.154;10.570;2023-09-12T08:48:49;24.00;99.90
21312;DHT22;18076;52.154;10.570;2023-09-12T08:51:14;24.00;99.90
21312;DHT22;18076;52.154;10.570;2023-09-12T08:53:40;23.90;99.90
21312;DHT22;18076;52.154;10.570;2023-09-12T08:56:06;23.70;99.90
21312;DHT22;18076;52.154;10.570;2023-09-12T08:58:32;23.70;99.90
21312;DHT22;18076;52.154;10.570;2023-09-12T09:00:58;23.80;99.90
21312;DHT22;18076;52.154;10.570;2023-09-12T09:03:24;23.80;99.90
21312;DHT22;18076;52.154;10.570;2023-09-12T09:05:51;23.70;99.90
21312;DHT22;18076;52.154;10.570;2023-09-12T09:08:16;23.80;99.90
21312;DHT22;18076;52.154;10.570;2023-09-12T09:10:54;23.80;99.90
21312;DHT22;18076;52.154;10.570;2023-09-12T09:13:19;23.90;99.90
21312;DHT22;18076;52.154;10.570;2023-09-12T09:15:45;23.80;99.90
21312;DHT22;18076;52.154;10.570;2023-09-12T09:18:11;23.90;99.90
21312;DHT22;18076;52.154;10.570;2023-09-12T09:20:37;24.00;99.90
21312;DHT22;18076;52.154;10.570;2023-09-12T09:23:10;24.00;99.90
21312;DHT22;18076;52.154;10.570;2023-09-12T09:25:36;24.10;99.90
21312;DHT22;18076;52.154;10.570;2023-09-12T09:28:05;24.10;99.90
21312;DHT22;18076;52.154;10.570;2023-09-12T09:30:41;24.20;99.90
21312;DHT22;18076;52.154;10.570;2023-09-12T09:33:06;24.50;99.90
21312;DHT22;18076;52.154;10.570;2023-09-12T09:35:32;24.60;99.90
21312;DHT22;18076;52.154;10.570;2023-09-12T09:37:58;24.70;99.90
21312;DHT22;18076;52.154;10.570;2023-09-12T09:40:23;24.70;99.90
21312;DHT22;18076;52.154;10.570;2023-09-12T09:42:58;24.70;99.90
21312;DHT22;18076;52.154;10.570;2023-09-12T09:45:24;24.70;99.90
21312;DHT22;18076;52.154;10.570;2023-09-12T09:47:50;24.60;99.90
21312;DHT22;18076;52.154;10.570;2023-09-12T09:50:18;24.50;99.90
21312;DHT22;18076;52.154;10.570;2023-09-12T09:52:44;24.50;99.90
21312;DHT22;18076;52.154;10.570;2023-09-12T09:55:13;24.50;99.90
21312;DHT22;18076;52.154;10.570;2023-09-12T09:57:40;24.50;99.90
21312;DHT22;18076;52.154;10.570;2023-09-12T10:00:05;24.60;99.90
21312;DHT22;18076;52.154;10.570;2023-09-12T10:02:35;24.60;99.90
21312;DHT22;18076;52.154;10.570;2023-09-12T10:05:02;24.60;99.90
21312;DHT22;18076;52.154;10.570;2023-09-12T10:07:36;24.80;99.90
21312;DHT22;18076;52.154;10.570;2023-09-12T10:10:02;24.80;99.90
21312;DHT22;18076;52.154;10.570;2023-09-12T10:12:30;24.80;99.90
21312;DHT22;18076;52.154;10.570;2023-09-12T10:15:05;24.60;99.90
21312;DHT22;18076;52.154;10.570;2023-09-12T10:17:35;24.70;99.90
21312;DHT22;18076;52.154;10.570;2023-09-12T10:20:02;24.80;99.90
21312;DHT22;18076;52.154;10.570;2023-09-12T10:23:19;24.80;99.90
21312;DHT22;18076;52.154;10.570;2023-09-12T10:25:18;24.70;99.90
21312;DHT22;18076;52.154;10.570;2023-09-12T10:27:47;24.50;99.90
21312;DHT22;18076;52.154;10.570;2023-09-12T10:30:14;24.60;99.90
21312;DHT22;18076;52.154;10.570;2023-09-12T10:32:43;25.00;99.90
21312;DHT22;18076;52.154;10.570;2023-09-12T10:35:16;25.50;99.90
21312;DHT22;18076;52.154;10.570;2023-09-12T10:37:53;25.80;99.90
21312;DHT22;18076;52.154;10.570;2023-09-12T10:40:25;26.00;99.90
21312;DHT22;18076;52.154;10.570;2023-09-12T10:42:56;25.70;99.90
21312;DHT22;18076;52.154;10.570;2023-09-12T10:45:49;25.60;99.90
21312;DHT22;18076;52.154;10.570;2023-09-12T10:48:20;26.00;99.90
21312;DHT22;18076;52.154;10.570;2023-09-12T10:50:47;26.40;99.90
21312;DHT22;18076;52.154;10.570;2023-09-12T10:53:18;26.70;99.90
21312;DHT22;18076;52.154;10.570;2023-09-12T10:56:03;26.90;99.90
21312;DHT22;18076;52.154;10.570;2023-09-12T11:01:24;27.00;99.90
21312;DHT22;18076;52.154;10.570;2023-09-12T11:03:52;26.40;99.90
21312;DHT22;18076;52.154;10.570;2023-09-12T11:06:36;26.30;99.90
21312;DHT22;18076;52.154;10.570;2023-09-12T11:11:40;26.50;99.90
21312;DHT22;18076;52.154;10.570;2023-09-12T11:14:07;26.70;99.90
21312;DHT22;18076;52.154;10.570;2023-09-12T11:19:46;27.10;99.90
21312;DHT22;18076;52.154;10.570;2023-09-12T11:22:24;27.00;99.90
21312;DHT22;18076;52.154;10.570;2023-09-12T11:24:52;27.10;99.90
21312;DHT22;18076;52.154;10.570;2023-09-12T11:27:18;27.60;99.90
21312;DHT22;18076;52.154;10.570;2023-09-12T11:29:47;27.70;99.90
21312;DHT22;18076;52.154;10.570;2023-09-12T11:32:31;28.20;99.90
21312;DHT22;18076;52.154;10.570;2023-09-12T11:34:57;28.20;99.90
21312;DHT22;18076;52.154;10.570;2023-09-12T11:37:27;27.80;99.90
21312;DHT22;18076;52.154;10.570;2023-09-12T11:39:54;27.70;99.90
21312;DHT22;18076;52.154;10.570;2023-09-12T11:42:27;27.90;99.90
21312;DHT22;18076;52.154;10.570;2023-09-12T11:44:53;28.10;99.90
21312;DHT22;18076;52.154;10.570;2023-09-12T11:47:18;27.90;99.90
21312;DHT22;18076;52.154;10.570;2023-09-12T11:49:45;28.00;99.90
21312;DHT22;18076;52.154;10.570;2023-09-12T11:52:12;27.80;99.90
21312;DHT22;18076;52.154;10.570;2023-09-12T11:54:39;27.70;99.90
21312;DHT22;18076;52.154;10.570;2023-09-12T11:57:05;27.70;99.90
21312;DHT22;18076;52.154;10.570;2023-09-12T11:59:32;27.60;99.90
21312;DHT22;18076;52.154;10.570;2023-09-12T12:02:00;27.30;99.90
21312;DHT22;18076;52.154;10.570;2023-09-12T12:04:26;27.10;99.90
21312;DHT22;18076;52.154;10.570;2023-09-12T12:06:52;27.10;99.90
21312;DHT22;18076;52.154;10.570;2023-09-12T12:09:18;26.70;99.90
21312;DHT22;18076;52.154;10.570;2023-09-12T12:11:47;26.50;99.90
21312;DHT22;18076;52.154;10.570;2023-09-12T12:14:13;26.20;99.90
21312;DHT22;18076;52.154;10.570;2023-09-12T12:16:41;26.10;99.90
21312;DHT22;18076;52.154;10.570;2023-09-12T12:19:07;26.20;99.90
21312;DHT22;18076;52.154;10.570;2023-09-12T12:21:32;26.40;99.90
21312;DHT22;18076;52.154;10.570;2023-09-12T12:23:58;26.40;99.90
21312;DHT22;18076;52.154;10.570;2023-09-12T12:26:24;26.20;99.90
21312;DHT22;18076;52.154;10.570;2023-09-12T12:28:50;25.80;99.90
21312;DHT22;18076;52.154;10.570;2023-09-12T12:31:16;25.50;99.90
21312;DHT22;18076;52.154;10.570;2023-09-12T12:33:47;25.40;99.90
21312;DHT22;18076;52.154;10.570;2023-09-12T12:36:12;25.30;99.90
21312;DHT22;18076;52.154;10.570;2023-09-12T12:38:38;25.40;99.90
21312;DHT22;18076;52.154;10.570;2023-09-12T12:41:04;25.30;99.90
21312;DHT22;18076;52.154;10.570;2023-09-12T12:43:30;25.10;99.90
21312;DHT22;18076;52.154;10.570;2023-09-12T12:45:57;25.10;99.90
21312;DHT22;18076;52.154;10.570;2023-09-12T12:48:29;25.30;99.90
21312;DHT22;18076;52.154;10.570;2023-09-12T12:50:55;25.50;99.90
21312;DHT22;18076;52.154;10.570;2023-09-12T12:53:37;25.60;99.90
21312;DHT22;18076;52.154;10.570;2023-09-12T12:56:02;25.60;99.90
21312;DHT22;18076;52.154;10.570;2023-09-12T12:58:28;26.00;99.90
21312;DHT22;18076;52.154;10.570;2023-09-12T13:00:54;26.10;99.90
21312;DHT22;18076;52.154;10.570;2023-09-12T13:03:19;26.30;99.90
21312;DHT22;18076;52.154;10.570;2023-09-12T13:05:45;26.30;99.90
21312;DHT22;18076;52.154;10.570;2023-09-12T13:08:10;26.40;99.90
21312;DHT22;18076;52.154;10.570;2023-09-12T13:10:36;26.40;99.90
21312;DHT22;18076;52.154;10.570;2023-09-12T13:13:02;26.50;99.90
21312;DHT22;18076;52.154;10.570;2023-09-12T13:15:29;26.50;99.90
21312;DHT22;18076;52.154;10.570;2023-09-12T13:17:55;26.40;99.90
21312;DHT22;18076;52.154;10.570;2023-09-12T13:20:20;26.50;99.90
21312;DHT22;18076;52.154;10.570;2023-09-12T13:22:46;26.40;99.90
21312;DHT22;18076;52.154;10.570;2023-09-12T13:25:11;26.40;99.90
21312;DHT22;18076;52.154;10.570;2023-09-12T13:27:37;26.40;99.90
21312;DHT22;18076;52.154;10.570;2023-09-12T13:30:02;26.80;99.90
21312;DHT22;18076;52.154;10.570;2023-09-12T13:32:29;27.00;99.90
21312;DHT22;18076;52.154;10.570;2023-09-12T13:34:55;27.40;99.90
21312;DHT22;18076;52.154;10.570;2023-09-12T13:37:20;27.80;99.90
21312;DHT22;18076;52.154;10.570;2023-09-12T13:39:46;27.80;99.90
21312;DHT22;18076;52.154;10.570;2023-09-12T13:42:15;27.60;99.90
21312;DHT22;18076;52.154;10.570;2023-09-12T13:44:45;27.50;99.90
21312;DHT22;18076;52.154;10.570;2023-09-12T13:47:10;27.60;99.90
21312;DHT22;18076;52.154;10.570;2023-09-12T13:49:36;27.50;99.90
21312;DHT22;18076;52.154;10.570;2023-09-12T13:52:02;27.50;99.90
21312;DHT22;18076;52.154;10.570;2023-09-12T13:54:27;27.50;99.90
21312;DHT22;18076;52.154;10.570;2023-09-12T13:56:53;27.40;99.90
21312;DHT22;18076;52.154;10.570;2023-09-12T13:59:18;27.20;99.90
21312;DHT22;18076;52.154;10.570;2023-09-12T14:01:46;27.30;99.90
21312;DHT22;18076;52.154;10.570;2023-09-12T14:04:11;27.20;99.90
21312;DHT22;18076;52.154;10.570;2023-09-12T14:06:38;27.30;99.90
21312;DHT22;18076;52.154;10.570;2023-09-12T14:09:04;27.60;99.90
21312;DHT22;18076;52.154;10.570;2023-09-12T14:11:30;27.80;99.90
21312;DHT22;18076;52.154;10.570;2023-09-12T14:13:55;27.50;99.90
21312;DHT22;18076;52.154;10.570;2023-09-12T14:16:21;27.40;99.90
21312;DHT22;18076;52.154;10.570;2023-09-12T14:18:47;27.40;99.90
21312;DHT22;18076;52.154;10.570;2023-09-12T14:21:12;27.40;99.90
21312;DHT22;18076;52.154;10.570;2023-09-12T14:23:38;27.50;99.90
21312;DHT22;18076;52.154;10.570;2023-09-12T14:26:03;27.60;99.90
21312;DHT22;18076;52.154;10.570;2023-09-12T14:28:29;27.70;99.90
21312;DHT22;18076;52.154;10.570;2023-09-12T14:30:57;27.90;99.90
21312;DHT22;18076;52.154;10.570;2023-09-12T14:33:22;28.10;99.90
21312;DHT22;18076;52.154;10.570;2023-09-12T14:35:48;28.10;99.90
21312;DHT22;18076;52.154;10.570;2023-09-12T14:38:13;28.20;99.90
21312;DHT22;18076;52.154;10.570;2023-09-12T14:40:39;28.40;99.90
21312;DHT22;18076;52.154;10.570;2023-09-12T14:43:05;28.50;99.90
21312;DHT22;18076;52.154;10.570;2023-09-12T14:45:30;28.50;99.90
21312;DHT22;18076;52.154;10.570;2023-09-12T14:47:56;28.40;99.90
21312;DHT22;18076;52.154;10.570;2023-09-12T14:50:23;28.40;99.90
21312;DHT22;18076;52.154;10.570;2023-09-12T14:52:49;28.20;99.90
21312;DHT22;18076;52.154;10.570;2023-09-12T14:55:15;28.10;99.90
21312;DHT22;18076;52.154;10.570;2023-09-12T14:57:41;28.20;99.90
21312;DHT22;18076;52.154;10.570;2023-09-12T15:00:06;28.00;99.90
21312;DHT22;18076;52.154;10.570;2023-09-12T15:02:32;27.80;99.90
21312;DHT22;18076;52.154;10.570;2023-09-12T15:04:58;27.60;99.90
21312;DHT22;18076;52.154;10.570;2023-09-12T15:07:24;27.50;99.90
21312;DHT22;18076;52.154;10.570;2023-09-12T15:09:50;27.20;99.90
21312;DHT22;18076;52.154;10.570;2023-09-12T15:12:15;27.10;99.90
21312;DHT22;18076;52.154;10.570;2023-09-12T15:14:41;26.90;99.90
21312;DHT22;18076;52.154;10.570;2023-09-12T15:17:07;26.70;99.90
21312;DHT22;18076;52.154;10.570;2023-09-12T15:19:32;26.70;99.90
21312;DHT22;18076;52.154;10.570;2023-09-12T15:21:58;26.40;99.90
21312;DHT22;18076;52.154;10.570;2023-09-12T15:24:23;26.30;99.90
21312;DHT22;18076;52.154;10.570;2023-09-12T15:26:49;26.20;99.90